createdAt,value
2018-07-24T00:01:22.217Z,99.90
2018-07-24T00:03:51.218Z,99.90
2018-07-24T00:06:20.089Z,99.90
2018-07-24T00:08:49.107Z,99.90
2018-07-24T00:11:18.062Z,99.90
2018-07-24T00:13:47.132Z,99.90
2018-07-24T00:16:15.954Z,99.90
2018-07-24T00:18:44.875Z,99.90
2018-07-24T00:21:13.764Z,99.90
2018-07-24T00:23:42.751Z,99.90
2018-07-24T00:26:11.623Z,99.90
2018-07-24T00:28:40.482Z,99.90
2018-07-24T00:31:09.662Z,99.90
2018-07-24T00:33:38.460Z,99.90
2018-07-24T00:36:07.289Z,99.90
2018-07-24T00:38:36.139Z,99.90
2018-07-24T00:41:05.005Z,99.90
2018-07-24T00:43:33.878Z,99.90
2018-07-24T00:46:02.716Z,99.90
2018-07-24T00:48:31.552Z,99.90
2018-07-24T00:51:00.394Z,99.90
2018-07-24T00:53:29.502Z,99.90
2018-07-24T00:55:58.325Z,99.90
2018-07-24T00:58:27.151Z,99.90
2018-07-24T01:00:56.008Z,99.90
2018-07-24T01:03:30.104Z,99.90
2018-07-24T01:05:58.890Z,99.90
2018-07-24T01:08:27.751Z,99.90
2018-07-24T01:10:56.622Z,99.90
2018-07-24T01:13:30.637Z,99.90
2018-07-24T01:15:59.527Z,99.90
2018-07-24T01:18:28.399Z,99.90
2018-07-24T01:20:57.371Z,99.90
2018-07-24T01:23:26.324Z,99.90
2018-07-24T01:25:55.172Z,99.90
2018-07-24T01:28:23.978Z,99.90
2018-07-24T01:30:52.812Z,99.90
2018-07-24T01:33:21.601Z,99.90
2018-07-24T01:35:50.489Z,99.90
2018-07-24T01:38:19.301Z,99.90
2018-07-24T01:40:48.191Z,99.90
2018-07-24T01:43:17.027Z,99.90
2018-07-24T01:45:45.894Z,99.90
2018-07-24T01:48:14.718Z,99.90
2018-07-24T01:50:43.554Z,99.90
2018-07-24T01:53:12.443Z,99.90
2018-07-24T01:55:41.338Z,99.90
2018-07-24T01:58:10.127Z,99.90
2018-07-24T02:00:38.944Z,99.90
2018-07-24T02:03:07.770Z,99.90
2018-07-24T02:05:36.607Z,99.90
2018-07-24T02:08:05.458Z,99.90
2018-07-24T02:10:34.368Z,99.90
2018-07-24T02:13:03.171Z,99.90
2018-07-24T02:15:31.991Z,99.90
2018-07-24T02:18:00.815Z,99.90
2018-07-24T02:20:29.642Z,99.90
2018-07-24T02:22:58.478Z,99.90
2018-07-24T02:25:27.304Z,99.90
2018-07-24T02:27:56.097Z,99.90
2018-07-24T02:30:24.890Z,99.90
2018-07-24T02:32:53.747Z,99.90
2018-07-24T02:35:22.561Z,99.90
2018-07-24T02:37:51.366Z,99.90
2018-07-24T02:40:20.227Z,99.90
2018-07-24T02:42:49.149Z,99.90
2018-07-24T02:45:17.960Z,99.90
2018-07-24T02:47:46.879Z,99.90
2018-07-24T02:50:15.958Z,99.90
2018-07-24T02:52:45.145Z,99.90
2018-07-24T02:55:19.103Z,99.90
2018-07-24T02:57:48.072Z,99.90
2018-07-24T03:00:16.997Z,99.90
2018-07-24T03:02:45.863Z,99.90
2018-07-24T03:05:14.746Z,99.90
2018-07-24T03:07:43.672Z,99.90
2018-07-24T03:10:12.565Z,99.90
2018-07-24T03:12:41.427Z,99.90
2018-07-24T03:15:10.470Z,99.90
2018-07-24T03:17:39.368Z,99.90
2018-07-24T03:20:08.608Z,99.90
2018-07-24T03:22:37.480Z,99.90
2018-07-24T03:25:06.383Z,99.90
2018-07-24T03:27:35.237Z,99.90
2018-07-24T03:30:04.123Z,99.90
2018-07-24T03:32:32.882Z,99.90
2018-07-24T03:35:01.810Z,99.90
2018-07-24T03:37:30.936Z,99.90
2018-07-24T03:39:59.795Z,99.90
2018-07-24T03:42:28.656Z,99.90
2018-07-24T03:44:57.570Z,99.90
2018-07-24T03:47:26.464Z,99.90
2018-07-24T03:49:55.293Z,99.90
2018-07-24T03:52:24.219Z,99.90
2018-07-24T03:54:53.078Z,99.90
2018-07-24T03:57:22.006Z,99.90
2018-07-24T03:59:50.911Z,99.90
2018-07-24T04:02:19.960Z,99.90
2018-07-24T04:04:48.855Z,99.90
2018-07-24T04:07:17.719Z,99.90
2018-07-24T04:09:46.581Z,99.90
2018-07-24T04:12:15.448Z,99.90
2018-07-24T04:14:44.311Z,99.90
2018-07-24T04:17:13.207Z,99.90
2018-07-24T04:19:42.264Z,99.90
2018-07-24T04:22:11.203Z,99.90
2018-07-24T04:24:39.969Z,99.90
2018-07-24T04:27:09.367Z,99.90
2018-07-24T04:29:38.209Z,99.90
2018-07-24T04:32:07.061Z,99.90
2018-07-24T04:34:35.926Z,99.90
2018-07-24T04:37:04.764Z,99.90
2018-07-24T04:39:33.575Z,99.90
2018-07-24T04:42:02.420Z,99.90
2018-07-24T04:44:36.226Z,99.90
2018-07-24T04:47:05.042Z,99.90
2018-07-24T04:49:33.841Z,99.90
2018-07-24T04:52:02.725Z,99.90
2018-07-24T04:54:31.676Z,99.90
2018-07-24T04:57:00.471Z,99.90
2018-07-24T04:59:29.385Z,99.90
2018-07-24T05:01:58.223Z,99.90
2018-07-24T05:04:27.296Z,99.90
2018-07-24T05:06:56.107Z,99.90
2018-07-24T05:09:24.976Z,99.90
2018-07-24T05:11:53.810Z,99.90
2018-07-24T05:14:22.600Z,99.90
2018-07-24T05:16:51.416Z,99.90
2018-07-24T05:19:20.255Z,99.90
2018-07-24T05:21:49.087Z,99.90
2018-07-24T05:24:17.943Z,99.90
2018-07-24T05:26:46.775Z,99.90
2018-07-24T05:29:15.574Z,99.90
2018-07-24T05:31:44.416Z,99.90
2018-07-24T05:34:18.284Z,99.90
2018-07-24T05:36:47.034Z,99.90
2018-07-24T05:39:15.858Z,99.90
2018-07-24T05:41:44.685Z,99.90
2018-07-24T05:44:18.491Z,99.90
2018-07-24T05:46:47.273Z,99.90
2018-07-24T05:49:16.055Z,99.90
2018-07-24T05:51:44.899Z,99.90
2018-07-24T05:54:13.737Z,99.90
2018-07-24T05:56:42.536Z,99.90
2018-07-24T05:59:11.425Z,99.90
2018-07-24T06:01:40.237Z,99.90
2018-07-24T06:04:09.041Z,99.90
2018-07-24T06:06:37.865Z,99.90
2018-07-24T06:09:07.968Z,99.90
2018-07-24T06:11:37.175Z,99.90
2018-07-24T06:14:06.004Z,99.90
2018-07-24T06:16:34.849Z,99.90
2018-07-24T06:19:03.656Z,99.90
2018-07-24T06:21:32.467Z,99.90
2018-07-24T06:24:01.311Z,99.90
2018-07-24T06:26:30.144Z,99.90
2018-07-24T06:28:58.939Z,99.90
2018-07-24T06:31:27.825Z,99.90
2018-07-24T06:33:56.626Z,99.90
2018-07-24T06:36:25.440Z,99.90
2018-07-24T06:38:54.355Z,99.90
2018-07-24T06:41:23.189Z,99.90
2018-07-24T06:43:51.995Z,99.90
2018-07-24T06:46:20.976Z,99.90
2018-07-24T06:48:49.854Z,99.90
2018-07-24T06:51:18.782Z,99.90
2018-07-24T06:53:47.600Z,99.90
2018-07-24T06:56:16.589Z,99.90
2018-07-24T06:58:45.392Z,99.90
2018-07-24T07:01:14.235Z,99.90
2018-07-24T07:03:43.300Z,99.90
2018-07-24T07:06:12.107Z,99.90
2018-07-24T07:08:41.009Z,99.90
2018-07-24T07:11:09.896Z,99.90
2018-07-24T07:13:38.711Z,99.90
2018-07-24T07:16:07.645Z,99.90
2018-07-24T07:18:36.436Z,99.90
2018-07-24T07:21:05.274Z,99.90
2018-07-24T07:23:34.114Z,99.90
2018-07-24T07:26:02.974Z,99.90
2018-07-24T07:28:31.842Z,99.90
2018-07-24T07:31:00.729Z,99.90
2018-07-24T07:33:29.575Z,99.90
2018-07-24T07:35:58.377Z,99.90
2018-07-24T07:38:27.173Z,99.90
2018-07-24T07:40:56.100Z,99.90
2018-07-24T07:43:25.190Z,99.90
2018-07-24T07:45:54.172Z,99.90
2018-07-24T07:48:23.980Z,99.90
2018-07-24T07:50:52.836Z,99.90
2018-07-24T07:53:21.696Z,99.90
2018-07-24T07:55:50.487Z,99.90
2018-07-24T07:58:19.767Z,99.90
2018-07-24T08:00:48.558Z,99.90
2018-07-24T08:03:17.417Z,99.90
2018-07-24T08:05:46.273Z,99.90
2018-07-24T08:08:15.135Z,99.90
2018-07-24T08:10:44.559Z,99.30
2018-07-24T08:13:13.552Z,99.80
2018-07-24T08:15:42.495Z,99.70
2018-07-24T08:18:11.363Z,99.60
2018-07-24T08:20:40.223Z,99.40
2018-07-24T08:23:09.036Z,98.10
2018-07-24T08:25:37.917Z,97.30
2018-07-24T08:28:06.872Z,96.70
2018-07-24T08:30:35.714Z,97.00
2018-07-24T08:33:04.626Z,97.10
2018-07-24T08:35:33.510Z,96.00
2018-07-24T08:38:02.396Z,95.60
2018-07-24T08:40:31.270Z,95.00
2018-07-24T08:43:00.129Z,94.60
2018-07-24T08:45:28.933Z,94.80
2018-07-24T08:47:58.015Z,94.90
2018-07-24T08:50:26.960Z,94.50
2018-07-24T08:52:55.967Z,94.80
2018-07-24T08:55:25.070Z,94.20
2018-07-24T08:57:53.676Z,93.70
2018-07-24T09:00:22.530Z,93.40
2018-07-24T09:02:51.346Z,93.30
2018-07-24T09:05:20.801Z,93.10
2018-07-24T09:07:50.288Z,92.60
2018-07-24T09:10:19.093Z,92.20
2018-07-24T09:12:47.996Z,91.00
2018-07-24T09:15:17.017Z,91.20
2018-07-24T09:17:45.843Z,91.30
2018-07-24T09:20:14.720Z,90.90
2018-07-24T09:22:43.619Z,91.70
2018-07-24T09:25:12.874Z,91.40
2018-07-24T09:27:41.803Z,91.00
2018-07-24T09:30:10.617Z,91.00
2018-07-24T09:32:39.460Z,90.20
2018-07-24T09:35:08.305Z,88.60
2018-07-24T09:37:37.075Z,87.00
2018-07-24T09:40:06.078Z,87.00
2018-07-24T09:42:34.883Z,86.60
2018-07-24T09:45:08.889Z,85.00
2018-07-24T09:47:37.723Z,86.60
2018-07-24T09:50:06.726Z,86.10
2018-07-24T09:52:35.575Z,85.10
2018-07-24T09:55:04.695Z,85.30
2018-07-24T09:57:33.551Z,86.80
2018-07-24T10:00:02.360Z,87.10
2018-07-24T10:02:31.182Z,86.60
2018-07-24T10:04:59.975Z,86.00
2018-07-24T10:07:29.013Z,87.00
2018-07-24T10:09:57.934Z,86.30
2018-07-24T10:12:27.327Z,86.50
2018-07-24T10:15:01.443Z,86.00
2018-07-24T10:17:30.250Z,84.30
2018-07-24T10:19:59.139Z,83.40
2018-07-24T10:22:27.980Z,83.20
2018-07-24T10:24:57.151Z,82.20
2018-07-24T10:27:25.999Z,82.50
2018-07-24T10:29:55.232Z,81.90
2018-07-24T10:32:24.090Z,80.10
2018-07-24T10:34:52.945Z,80.50
2018-07-24T10:37:21.759Z,80.70
2018-07-24T10:39:50.614Z,81.30
2018-07-24T10:42:19.530Z,80.30
2018-07-24T10:44:48.320Z,79.60
2018-07-24T10:47:17.166Z,81.00
2018-07-24T10:49:46.023Z,81.70
2018-07-24T10:52:14.948Z,79.80
2018-07-24T10:54:43.957Z,78.80
2018-07-24T10:57:12.850Z,78.90
2018-07-24T10:59:41.722Z,78.40
2018-07-24T11:02:10.676Z,77.60
2018-07-24T11:04:39.975Z,77.20
2018-07-24T11:07:08.823Z,74.90
2018-07-24T11:09:37.719Z,74.80
2018-07-24T11:12:06.655Z,73.10
2018-07-24T11:14:35.698Z,73.10
2018-07-24T11:17:05.367Z,74.00
2018-07-24T11:19:34.135Z,74.40
2018-07-24T11:22:02.965Z,74.90
2018-07-24T11:24:31.770Z,75.20
2018-07-24T11:27:00.582Z,75.50
2018-07-24T11:29:29.350Z,76.30
2018-07-24T11:31:58.234Z,77.40
2018-07-24T11:34:27.127Z,76.70
2018-07-24T11:36:55.954Z,76.70
2018-07-24T11:39:24.785Z,75.40
2018-07-24T11:41:53.590Z,74.70
2018-07-24T11:44:22.443Z,74.50
2018-07-24T11:46:51.264Z,75.20
2018-07-24T11:49:20.067Z,73.90
2018-07-24T11:51:48.912Z,75.50
2018-07-24T11:54:17.649Z,74.60
2018-07-24T11:56:46.465Z,74.40
2018-07-24T11:59:15.266Z,75.70
2018-07-24T12:01:44.116Z,75.70
2018-07-24T12:04:12.963Z,77.70
2018-07-24T12:06:41.759Z,77.20
2018-07-24T12:09:12.480Z,75.90
2018-07-24T12:11:41.841Z,77.10
2018-07-24T12:14:10.798Z,77.50
2018-07-24T12:16:39.709Z,77.50
2018-07-24T12:19:08.500Z,76.30
2018-07-24T12:21:37.281Z,75.40
2018-07-24T12:24:06.081Z,75.70
2018-07-24T12:26:34.876Z,76.30
2018-07-24T12:29:03.727Z,77.40
2018-07-24T12:31:32.537Z,77.10
2018-07-24T12:34:01.419Z,78.00
2018-07-24T12:36:30.209Z,78.60
2018-07-24T12:38:59.174Z,77.10
2018-07-24T12:41:27.959Z,77.20
2018-07-24T12:43:57.146Z,77.30
2018-07-24T12:46:25.975Z,74.80
2018-07-24T12:48:54.794Z,74.60
2018-07-24T12:51:23.572Z,73.00
2018-07-24T12:53:52.567Z,73.90
2018-07-24T12:56:21.327Z,75.50
2018-07-24T12:58:50.138Z,76.30
2018-07-24T13:01:18.939Z,78.20
2018-07-24T13:03:52.898Z,79.20
2018-07-24T13:06:21.729Z,76.90
2018-07-24T13:08:50.565Z,74.30
2018-07-24T13:11:19.436Z,74.40
2018-07-24T13:13:53.547Z,73.40
2018-07-24T13:16:22.367Z,74.50
2018-07-24T13:18:51.165Z,74.60
2018-07-24T13:21:19.978Z,74.30
2018-07-24T13:23:48.790Z,74.50
2018-07-24T13:26:17.645Z,69.50
2018-07-24T13:28:46.423Z,68.40
2018-07-24T13:31:15.190Z,68.60
2018-07-24T13:33:44.001Z,68.10
2018-07-24T13:36:12.778Z,67.30
2018-07-24T13:38:41.620Z,67.90
2018-07-24T13:41:10.422Z,68.10
2018-07-24T13:43:39.276Z,66.40
2018-07-24T13:46:08.092Z,65.50
2018-07-24T13:48:36.847Z,64.90
2018-07-24T13:51:05.651Z,64.70
2018-07-24T13:53:34.425Z,64.00
2018-07-24T13:56:03.247Z,63.70
2018-07-24T13:58:32.011Z,64.80
2018-07-24T14:01:00.830Z,64.10
2018-07-24T14:03:29.640Z,64.00
2018-07-24T14:05:58.436Z,63.00
2018-07-24T14:08:27.265Z,63.40
2018-07-24T14:10:56.092Z,63.80
2018-07-24T14:13:24.895Z,64.80
2018-07-24T14:15:53.900Z,62.90
2018-07-24T14:18:22.755Z,64.50
2018-07-24T14:20:51.912Z,63.30
2018-07-24T14:23:20.736Z,63.60
2018-07-24T14:25:49.623Z,63.30
2018-07-24T14:28:18.621Z,62.40
2018-07-24T14:30:47.421Z,62.70
2018-07-24T14:33:16.294Z,62.50
2018-07-24T14:35:50.133Z,61.30
2018-07-24T14:38:18.993Z,61.00
2018-07-24T14:40:47.828Z,62.10
2018-07-24T14:43:16.614Z,62.30
2018-07-24T14:45:45.487Z,62.40
2018-07-24T14:48:14.329Z,61.50
2018-07-24T14:50:43.141Z,60.60
2018-07-24T14:53:11.948Z,59.70
2018-07-24T14:55:40.833Z,59.80
2018-07-24T14:58:09.710Z,59.10
2018-07-24T15:00:38.958Z,58.10
2018-07-24T15:03:07.802Z,56.90
2018-07-24T15:05:36.890Z,58.20
2018-07-24T15:08:05.750Z,59.80
2018-07-24T15:10:34.569Z,60.40
2018-07-24T15:13:03.549Z,60.00
2018-07-24T15:15:32.570Z,60.00
2018-07-24T15:18:01.461Z,60.30
2018-07-24T15:20:30.329Z,61.60
2018-07-24T15:22:59.146Z,60.90
2018-07-24T15:25:27.929Z,61.30
2018-07-24T15:27:56.835Z,63.30
2018-07-24T15:30:25.646Z,63.70
2018-07-24T15:32:54.517Z,63.40
2018-07-24T15:35:23.426Z,65.00
2018-07-24T15:37:52.242Z,63.20
2018-07-24T15:40:21.027Z,63.20
2018-07-24T15:42:50.321Z,62.60
2018-07-24T15:45:19.207Z,63.30
2018-07-24T15:47:48.022Z,64.40
2018-07-24T15:50:16.869Z,64.00
2018-07-24T15:52:45.715Z,63.10
2018-07-24T15:55:14.578Z,62.00
2018-07-24T15:57:43.473Z,62.70
2018-07-24T16:00:12.307Z,65.20
2018-07-24T16:02:41.108Z,65.10
2018-07-24T16:05:09.965Z,65.70
2018-07-24T16:07:38.773Z,65.00
2018-07-24T16:10:07.622Z,65.50
2018-07-24T16:12:36.601Z,63.40
2018-07-24T16:15:06.337Z,63.90
2018-07-24T16:17:35.167Z,66.20
2018-07-24T16:20:04.963Z,67.10
2018-07-24T16:22:33.884Z,64.20
2018-07-24T16:25:02.891Z,64.40
2018-07-24T16:27:31.781Z,64.80
2018-07-24T16:30:00.614Z,66.70
2018-07-24T16:32:29.463Z,66.60
2018-07-24T16:34:58.275Z,67.40
2018-07-24T16:37:27.184Z,67.60
2018-07-24T16:39:56.026Z,67.70
2018-07-24T16:42:24.869Z,68.20
2018-07-24T16:44:53.683Z,69.50
2018-07-24T16:47:22.543Z,69.40
2018-07-24T16:49:51.427Z,70.30
2018-07-24T16:52:20.422Z,72.70
2018-07-24T16:54:49.470Z,74.60
2018-07-24T16:57:18.261Z,76.80
2018-07-24T16:59:47.088Z,78.10
2018-07-24T17:02:15.884Z,79.20
2018-07-24T17:04:44.705Z,79.90
2018-07-24T17:07:13.560Z,81.90
2018-07-24T17:09:42.425Z,82.40
2018-07-24T17:12:11.401Z,82.70
2018-07-24T17:14:40.551Z,82.90
2018-07-24T17:17:09.449Z,83.90
2018-07-24T17:19:38.323Z,84.90
2018-07-24T17:22:21.590Z,84.40
2018-07-24T17:24:50.615Z,84.90
2018-07-24T17:27:19.444Z,86.60
2018-07-24T17:29:48.231Z,87.10
2018-07-24T17:32:17.070Z,86.90
2018-07-24T17:34:45.910Z,86.80
2018-07-24T17:37:14.753Z,86.90
2018-07-24T17:39:43.616Z,87.50
2018-07-24T17:42:12.400Z,87.20
2018-07-24T17:44:41.243Z,87.40
2018-07-24T17:47:10.186Z,86.80
2018-07-24T17:49:39.026Z,87.00
2018-07-24T17:52:07.889Z,87.10
2018-07-24T17:54:36.715Z,87.90
2018-07-24T17:57:05.722Z,87.20
2018-07-24T17:59:34.557Z,87.70
2018-07-24T18:02:03.428Z,88.70
2018-07-24T18:04:32.258Z,89.20
2018-07-24T18:07:01.120Z,89.30
2018-07-24T18:09:29.924Z,89.30
2018-07-24T18:11:58.701Z,89.10
2018-07-24T18:14:27.496Z,89.10
2018-07-24T18:16:56.391Z,89.40
2018-07-24T18:19:25.182Z,89.60
2018-07-24T18:21:53.998Z,89.70
2018-07-24T18:24:22.804Z,89.40
2018-07-24T18:26:51.673Z,90.00
2018-07-24T18:29:20.740Z,89.80
2018-07-24T18:31:49.523Z,90.20
2018-07-24T18:34:18.384Z,90.40
2018-07-24T18:36:47.233Z,90.40
2018-07-24T18:39:16.047Z,90.50
2018-07-24T18:41:44.868Z,90.50
2018-07-24T18:44:13.715Z,90.60
2018-07-24T18:46:42.493Z,90.90
2018-07-24T18:49:11.332Z,91.00
2018-07-24T18:51:40.180Z,91.10
2018-07-24T18:54:08.995Z,90.80
2018-07-24T18:56:37.826Z,90.90
2018-07-24T18:59:06.864Z,90.40
2018-07-24T19:01:35.808Z,90.10
2018-07-24T19:04:04.746Z,90.10
2018-07-24T19:06:33.552Z,90.00
2018-07-24T19:09:02.346Z,90.30
2018-07-24T19:11:31.152Z,90.60
2018-07-24T19:14:00.145Z,90.60
2018-07-24T19:16:28.982Z,90.40
2018-07-24T19:18:57.791Z,90.80
2018-07-24T19:21:26.595Z,91.20
2018-07-24T19:23:55.470Z,91.90
2018-07-24T19:26:24.312Z,91.90
2018-07-24T19:28:53.082Z,92.20
2018-07-24T19:31:22.015Z,92.30
2018-07-24T19:33:50.757Z,92.40
2018-07-24T19:36:19.589Z,92.70
2018-07-24T19:38:48.416Z,93.20
2018-07-24T19:41:17.225Z,92.80
2018-07-24T19:43:46.121Z,93.20
2018-07-24T19:46:14.882Z,93.80
2018-07-24T19:48:43.892Z,93.90
2018-07-24T19:51:12.739Z,93.50
2018-07-24T19:53:41.599Z,93.50
2018-07-24T19:56:10.423Z,93.70
2018-07-24T19:58:39.362Z,93.80
2018-07-24T20:01:08.232Z,93.80
2018-07-24T20:03:37.076Z,94.00
2018-07-24T20:06:05.961Z,93.90
2018-07-24T20:08:34.824Z,93.80
2018-07-24T20:11:03.691Z,93.90
2018-07-24T20:13:32.580Z,94.10
2018-07-24T20:16:01.435Z,94.00
2018-07-24T20:18:30.270Z,94.40
2018-07-24T20:21:00.013Z,94.80
2018-07-24T20:23:28.941Z,94.90
2018-07-24T20:25:57.628Z,95.10
2018-07-24T20:28:26.405Z,95.40
2018-07-24T20:30:55.244Z,95.30
2018-07-24T20:33:24.039Z,95.30
2018-07-24T20:35:53.053Z,95.20
2018-07-24T20:38:21.852Z,95.00
2018-07-24T20:40:50.705Z,94.60
2018-07-24T20:43:19.565Z,94.60
2018-07-24T20:45:53.458Z,94.60
2018-07-24T20:48:22.283Z,94.60
2018-07-24T20:50:51.065Z,94.50
2018-07-24T20:53:19.872Z,94.20
2018-07-24T20:55:48.646Z,94.10
2018-07-24T20:58:17.460Z,94.90
2018-07-24T21:00:46.320Z,94.80
2018-07-24T21:03:15.214Z,94.50
2018-07-24T21:05:44.068Z,94.40
2018-07-24T21:08:12.901Z,94.80
2018-07-24T21:10:42.146Z,95.30
2018-07-24T21:13:11.030Z,95.20
2018-07-24T21:15:45.092Z,95.80
2018-07-24T21:18:13.899Z,96.00
2018-07-24T21:20:42.743Z,96.20
2018-07-24T21:23:11.712Z,96.10
2018-07-24T21:25:40.707Z,95.90
2018-07-24T21:28:09.631Z,96.20
2018-07-24T21:30:38.406Z,95.90
2018-07-24T21:33:07.284Z,95.90
2018-07-24T21:35:36.077Z,95.90
2018-07-24T21:38:04.900Z,95.80
2018-07-24T21:40:33.676Z,95.70
2018-07-24T21:43:02.519Z,95.90
2018-07-24T21:45:31.372Z,96.20
2018-07-24T21:48:00.191Z,96.00
2018-07-24T21:50:29.015Z,96.50
2018-07-24T21:52:57.839Z,96.70
2018-07-24T21:55:26.646Z,96.40
2018-07-24T21:57:55.447Z,96.30
2018-07-24T22:00:24.273Z,96.50
2018-07-24T22:02:53.107Z,96.50
2018-07-24T22:05:22.114Z,96.90
2018-07-24T22:07:50.917Z,96.60
2018-07-24T22:10:21.953Z,96.50
2018-07-24T22:12:51.536Z,96.80
2018-07-24T22:15:27.302Z,97.20
2018-07-24T22:17:56.816Z,96.90
2018-07-24T22:20:25.653Z,97.00
2018-07-24T22:22:54.421Z,96.70
2018-07-24T22:25:28.505Z,96.60
2018-07-24T22:27:57.308Z,96.40
2018-07-24T22:30:26.122Z,96.50
2018-07-24T22:32:54.957Z,97.10
2018-07-24T22:35:23.919Z,97.50
2018-07-24T22:37:52.745Z,97.60
2018-07-24T22:40:21.573Z,97.40
2018-07-24T22:42:50.338Z,97.10
2018-07-24T22:45:19.177Z,97.20
2018-07-24T22:47:47.982Z,96.90
2018-07-24T22:50:16.801Z,96.90
2018-07-24T22:52:45.603Z,97.00
2018-07-24T22:55:14.470Z,97.20
2018-07-24T22:57:43.299Z,97.00
2018-07-24T23:00:12.188Z,96.70
2018-07-24T23:02:41.027Z,96.70
2018-07-24T23:05:10.254Z,96.50
2018-07-24T23:07:39.023Z,96.50
2018-07-24T23:10:07.862Z,96.70
2018-07-24T23:12:36.672Z,96.90
2018-07-24T23:15:06.484Z,97.10
2018-07-24T23:17:35.269Z,97.20
2018-07-24T23:20:04.152Z,97.10
2018-07-24T23:22:32.995Z,96.70
2018-07-24T23:25:01.864Z,96.60
2018-07-24T23:27:30.710Z,96.30
2018-07-24T23:29:59.515Z,97.10
2018-07-24T23:32:28.348Z,97.10
2018-07-24T23:34:57.198Z,97.80
2018-07-24T23:37:26.027Z,97.80
2018-07-24T23:39:54.814Z,97.80
2018-07-24T23:42:23.701Z,97.40
2018-07-24T23:44:52.588Z,96.90
2018-07-24T23:47:21.381Z,96.90
2018-07-24T23:49:50.161Z,97.10
2018-07-24T23:52:18.957Z,97.40
2018-07-24T23:54:47.924Z,97.00
2018-07-24T23:57:16.770Z,97.10
2018-07-24T23:59:45.637Z,97.70
